createdAt,value
2022-09-28T00:09:17.938Z,10.15
2022-09-28T00:29:20.526Z,9.89
2022-09-28T00:49:22.953Z,10.13
2022-09-28T01:09:25.346Z,9.93
2022-09-28T01:29:27.758Z,9.89
2022-09-28T01:49:32.076Z,10.28
2022-09-28T02:09:35.381Z,10.49
2022-09-28T02:29:37.813Z,10.62
2022-09-28T02:49:40.599Z,10.65
2022-09-28T03:09:42.987Z,9.82
2022-09-28T03:29:45.396Z,8.69
2022-09-28T03:49:48.268Z,8.34
2022-09-28T04:09:50.711Z,9.17
2022-09-28T04:29:53.138Z,9.24
2022-09-28T04:49:55.591Z,9.17
2022-09-28T05:09:58.015Z,9.04
2022-09-28T05:30:00.719Z,9.78
2022-09-28T05:50:03.136Z,10.00
2022-09-28T06:10:05.522Z,10.10
2022-09-28T06:30:07.961Z,9.67
2022-09-28T06:50:13.355Z,10.96
2022-09-28T07:10:15.737Z,11.12
2022-09-28T07:30:18.279Z,12.17
2022-09-28T07:50:22.363Z,12.48
2022-09-28T08:10:24.767Z,12.11
2022-09-28T08:30:27.999Z,12.65
2022-09-28T08:50:30.837Z,13.62
2022-09-28T09:10:35.016Z,14.38
2022-09-28T09:30:37.510Z,13.52
2022-09-28T09:50:41.122Z,13.96
2022-09-28T10:10:43.521Z,14.26
2022-09-28T10:30:46.162Z,13.89
2022-09-28T10:50:48.671Z,15.17
2022-09-28T11:10:51.095Z,14.81
2022-09-28T11:30:53.785Z,16.15
2022-09-28T11:50:56.245Z,16.82
2022-09-28T12:10:58.636Z,17.01
2022-09-28T12:31:01.083Z,18.03
2022-09-28T12:51:04.241Z,15.70
2022-09-28T13:11:08.021Z,16.36
2022-09-28T13:31:10.610Z,17.63
2022-09-28T13:51:13.010Z,17.81
2022-09-28T14:11:15.427Z,16.34
2022-09-28T14:31:18.147Z,15.89
2022-09-28T14:51:20.831Z,15.76
2022-09-28T15:11:24.335Z,15.41
2022-09-28T15:31:27.473Z,15.10
2022-09-28T15:51:29.989Z,14.97
2022-09-28T16:11:33.030Z,14.61
2022-09-28T16:31:35.681Z,13.51
2022-09-28T16:51:41.219Z,13.45
2022-09-28T17:11:43.733Z,13.11
2022-09-28T17:31:46.366Z,12.95
2022-09-28T17:51:48.775Z,12.97
2022-09-28T18:11:51.418Z,12.93
2022-09-28T18:31:53.968Z,12.49
2022-09-28T18:51:56.355Z,12.32
2022-09-28T19:11:58.735Z,12.04
2022-09-28T19:32:01.162Z,11.64
2022-09-28T19:52:18.968Z,11.40
2022-09-28T20:12:21.862Z,11.55
2022-09-28T20:32:24.358Z,11.63
2022-09-28T20:52:27.036Z,11.22
2022-09-28T21:12:30.080Z,11.24
2022-09-28T21:32:32.509Z,11.29
2022-09-28T21:52:35.049Z,11.29
2022-09-28T22:12:37.606Z,11.28
2022-09-28T22:32:39.999Z,11.15
2022-09-28T22:52:42.469Z,11.15
2022-09-28T23:12:44.875Z,11.05
2022-09-28T23:32:47.703Z,11.15
2022-09-28T23:52:50.155Z,11.14
